Time;durP1;ratioP1;P1;durP2;ratioP2;P2;SDS_P1;SDS_P2;PMS_P1;PMS_P2;Temp;Humidity;BMP_temperature;BMP_pressure;BME280_temperature;BME280_humidity;BME280_pressure;Samples;Min_cycle;Max_cycle;Signal;HPM_P1;HPM_P2
2022/06/19 00:00:08;;;;;;;9.52;2.35;;;;;;;18.97;65.66;100780.38;5076081;28;20115;-70
2022/06/19 00:02:35;;;;;;;10.13;2.75;;;;;;;18.87;65.89;100770.34;5075447;28;20025;-70
2022/06/19 00:05:00;;;;;;;11.95;2.60;;;;;;;18.89;66.40;100760.53;5076405;28;20032;-70
2022/06/19 00:07:26;;;;;;;7.03;2.10;;;;;;;18.82;65.43;100772.41;5076113;28;20495;-70
2022/06/19 00:09:51;;;;;;;10.32;2.95;;;;;;;18.74;65.40;100769.38;5075485;28;20448;-70
2022/06/19 00:12:18;;;;;;;8.15;2.50;;;;;;;18.70;66.17;100773.06;5076098;28;20353;-70
2022/06/19 00:14:44;;;;;;;7.28;2.28;;;;;;;18.64;65.66;100769.03;5075302;28;20099;-70
2022/06/19 00:17:09;;;;;;;11.77;2.58;;;;;;;18.61;66.09;100765.72;5076404;28;20112;-70
2022/06/19 00:19:35;;;;;;;10.50;2.72;;;;;;;18.64;65.98;100753.19;5075608;28;20035;-70
2022/06/19 00:22:01;;;;;;;7.88;2.47;;;;;;;18.55;65.98;100753.72;5075569;28;20031;-70
2022/06/19 00:24:29;;;;;;;13.45;2.78;;;;;;;18.55;66.48;100758.16;5075862;28;20445;-70
2022/06/19 00:26:54;;;;;;;8.90;2.50;;;;;;;18.56;65.93;100755.41;5075670;28;20381;-70
2022/06/19 00:29:19;;;;;;;10.10;2.22;;;;;;;18.50;65.57;100766.31;5075185;28;20017;-70
2022/06/19 00:31:45;;;;;;;10.63;2.33;;;;;;;18.53;65.60;100786.41;5075668;28;20429;-69
2022/06/19 00:34:10;;;;;;;12.38;2.83;;;;;;;18.49;65.23;100789.22;5075735;28;20028;-70
2022/06/19 00:36:35;;;;;;;14.45;2.30;;;;;;;18.42;65.36;100801.09;5075137;28;20476;-70
2022/06/19 00:39:01;;;;;;;7.65;2.45;;;;;;;18.37;65.42;100791.72;5075840;28;20021;-70
2022/06/19 00:41:35;;;;;;;8.13;2.25;;;;;;;18.30;65.42;100787.72;5075553;28;20024;-70
2022/06/19 00:44:05;;;;;;;9.20;2.25;;;;;;;18.33;65.29;100790.19;5075034;28;20064;-70
2022/06/19 00:46:51;;;;;;;11.85;2.75;;;;;;;18.31;65.39;100792.06;5075423;28;20028;-70
2022/06/19 00:49:28;;;;;;;9.25;2.60;;;;;;;18.19;65.65;100785.69;5075404;28;20036;-70
2022/06/19 00:52:06;;;;;;;8.70;2.40;;;;;;;18.19;65.22;100788.34;5074481;28;20078;-72
2022/06/19 00:54:37;;;;;;;8.00;2.50;;;;;;;18.11;64.91;100786.09;5075262;28;20028;-70
2022/06/19 00:57:03;;;;;;;8.45;2.67;;;;;;;18.00;64.84;100786.72;5075027;28;20028;-70
2022/06/19 00:59:29;;;;;;;9.68;2.50;;;;;;;17.96;64.93;100794.88;5075213;28;20021;-70
2022/06/19 01:01:56;;;;;;;8.57;2.50;;;;;;;17.84;64.42;100791.13;5074698;28;20427;-70
2022/06/19 01:04:27;;;;;;;11.50;2.70;;;;;;;17.85;64.83;100798.09;5074659;28;20495;-70
2022/06/19 01:06:52;;;;;;;9.85;2.53;;;;;;;17.78;64.31;100783.53;5074869;28;20036;-70
2022/06/19 01:09:17;;;;;;;12.77;2.47;;;;;;;17.81;63.53;100774.63;5075109;28;20024;-70
2022/06/19 01:11:43;;;;;;;12.52;2.40;;;;;;;17.73;63.61;100780.28;5074405;28;20029;-70
2022/06/19 01:14:13;;;;;;;10.32;2.42;;;;;;;17.62;63.39;100770.31;5075136;28;20146;-70
2022/06/19 01:16:38;;;;;;;12.10;3.20;;;;;;;17.61;64.00;100791.50;5074482;28;20040;-70
2022/06/19 01:19:08;;;;;;;11.80;2.60;;;;;;;17.47;62.83;100829.13;5074331;28;20495;-70
2022/06/19 01:21:47;;;;;;;12.65;2.55;;;;;;;17.37;63.83;100936.78;5074501;28;20460;-70
2022/06/19 01:24:21;;;;;;;7.85;2.38;;;;;;;17.28;63.45;100974.97;5074772;28;20146;-70
2022/06/19 01:26:50;;;;;;;12.18;2.33;;;;;;;17.25;63.14;100888.19;5074017;28;20032;-70
2022/06/19 01:29:19;;;;;;;10.13;2.17;;;;;;;17.16;61.90;100832.47;5075049;28;20095;-70
2022/06/19 01:31:49;;;;;;;14.23;2.67;;;;;;;17.13;62.13;100880.03;5074148;28;20503;-70
2022/06/19 01:34:29;;;;;;;10.88;2.33;;;;;;;17.02;63.23;100935.91;5074146;28;20030;-70
2022/06/19 01:37:06;;;;;;;11.85;2.40;;;;;;;16.94;63.15;100906.44;5074146;28;20104;-70
2022/06/19 01:39:39;;;;;;;10.57;2.42;;;;;;;16.83;61.78;100851.69;5073955;28;20416;-70
2022/06/19 01:42:05;;;;;;;10.20;2.25;;;;;;;16.87;61.99;100905.88;5074552;28;20048;-70
2022/06/19 01:44:32;;;;;;;5.43;2.03;;;;;;;16.78;62.20;100954.59;5074175;28;20048;-70
2022/06/19 01:46:59;;;;;;;9.43;2.58;;;;;;;16.69;59.85;100909.38;5073927;28;20050;-70
2022/06/19 01:49:24;;;;;;;11.85;3.00;;;;;;;16.56;59.49;100867.84;5074437;28;20029;-70
2022/06/19 01:51:51;;;;;;;11.05;2.70;;;;;;;16.47;60.24;100914.81;5073860;28;20024;-70
2022/06/19 01:54:21;;;;;;;12.25;2.60;;;;;;;16.40;60.47;100901.09;5073381;28;20036;-70
2022/06/19 01:56:50;;;;;;;10.25;2.40;;;;;;;16.39;60.00;100900.22;5073644;28;20074;-70
2022/06/19 01:59:16;;;;;;;13.80;2.38;;;;;;;16.37;59.73;100915.22;5073894;28;20024;-69
2022/06/19 02:01:42;;;;;;;8.73;2.47;;;;;;;16.29;59.50;100929.69;5073469;28;20032;-70
2022/06/19 02:04:08;;;;;;;10.77;2.30;;;;;;;16.23;57.91;100904.50;5074212;28;20028;-70
2022/06/19 02:06:40;;;;;;;11.30;1.90;;;;;;;16.12;58.13;100918.16;5073491;28;20024;-70
2022/06/19 02:09:06;;;;;;;15.57;2.30;;;;;;;15.97;56.86;100915.34;5073381;28;20052;-70
2022/06/19 02:11:33;;;;;;;8.90;2.08;;;;;;;15.92;58.00;100905.03;5073764;28;20472;-70
2022/06/19 02:14:00;;;;;;;11.45;2.30;;;;;;;15.96;56.50;100916.25;5073655;28;20432;-70
2022/06/19 02:16:26;;;;;;;13.05;2.20;;;;;;;15.93;55.26;100912.00;5073349;28;20025;-69
2022/06/19 02:18:53;;;;;;;8.05;2.60;;;;;;;15.85;55.87;100906.22;5073695;28;20358;-69
2022/06/19 02:21:37;;;;;;;14.18;2.53;;;;;;;15.78;55.57;100902.16;5073638;28;20032;-70
2022/06/19 02:24:04;;;;;;;10.77;2.45;;;;;;;15.76;55.80;100920.66;5073757;28;20104;-70
2022/06/19 02:26:30;;;;;;;13.35;2.70;;;;;;;15.82;56.75;100925.59;5073932;28;20107;-70
2022/06/19 02:28:56;;;;;;;9.57;1.95;;;;;;;15.87;56.11;100928.91;5072927;28;20107;-70
2022/06/19 02:31:22;;;;;;;6.75;1.75;;;;;;;15.80;54.62;100926.63;5074088;28;20081;-70
2022/06/19 02:33:51;;;;;;;8.20;1.85;;;;;;;15.79;54.98;100935.41;5073414;28;20028;-70
2022/06/19 02:36:40;;;;;;;13.35;2.30;;;;;;;15.77;55.65;100929.38;5073387;28;20101;-70
2022/06/19 02:39:18;;;;;;;9.43;1.92;;;;;;;15.81;56.43;100944.94;5073865;28;20055;-70
2022/06/19 02:41:53;;;;;;;13.20;2.30;;;;;;;15.76;54.85;100936.41;5073184;28;20089;-69
2022/06/19 02:44:18;;;;;;;12.00;2.35;;;;;;;15.81;55.16;100944.09;5072783;28;20091;-69
2022/06/19 02:46:43;;;;;;;7.68;2.30;;;;;;;15.90;55.66;100947.16;5073498;28;20034;-70
2022/06/19 02:49:09;;;;;;;9.95;1.90;;;;;;;15.87;54.76;100922.78;5073882;28;20039;-70
2022/06/19 02:51:34;;;;;;;10.32;2.47;;;;;;;15.84;54.23;100917.66;5072507;28;20020;-69
2022/06/19 02:53:59;;;;;;;6.78;1.85;;;;;;;15.84;55.21;100912.41;5072814;28;20454;-69
2022/06/19 02:56:25;;;;;;;8.32;1.77;;;;;;;15.81;53.84;100923.06;5072955;28;20037;-69
2022/06/19 02:58:50;;;;;;;7.80;2.05;;;;;;;15.78;54.18;100971.34;5072346;28;20021;-69
2022/06/19 03:01:15;;;;;;;8.57;1.70;;;;;;;15.73;54.96;101030.28;5072777;28;20108;-70
2022/06/19 03:03:41;;;;;;;11.23;1.77;;;;;;;15.73;54.93;101031.16;5072022;28;20070;-69
2022/06/19 03:06:06;;;;;;;10.07;1.70;;;;;;;15.66;54.03;100999.03;5073219;28;20031;-69
2022/06/19 03:08:32;;;;;;;6.80;1.63;;;;;;;15.58;53.57;100959.03;5072377;28;20354;-69
2022/06/19 03:10:58;;;;;;;9.60;1.92;;;;;;;15.56;53.49;100957.38;5072090;28;20025;-69
2022/06/19 03:13:25;;;;;;;9.82;1.60;;;;;;;15.57;52.80;100962.59;5073061;28;20028;-69
2022/06/19 03:16:02;;;;;;;8.98;1.80;;;;;;;15.58;52.77;100955.56;5072311;28;20025;-70
2022/06/19 03:18:28;;;;;;;4.50;1.50;;;;;;;15.51;53.17;100952.34;5072584;28;20078;-69
2022/06/19 03:20:54;;;;;;;6.30;1.50;;;;;;;15.50;52.50;100918.22;5072704;28;20020;-69
2022/06/19 03:23:20;;;;;;;10.27;1.95;;;;;;;15.54;52.70;100902.28;5072697;28;20444;-69
2022/06/19 03:25:45;;;;;;;11.38;1.63;;;;;;;15.48;52.72;100905.16;5072028;28;20048;-69
2022/06/19 03:28:10;;;;;;;9.30;1.60;;;;;;;15.45;51.65;100906.16;5072680;28;20028;-70
2022/06/19 03:30:35;;;;;;;4.55;1.45;;;;;;;15.43;52.10;100930.78;5072115;28;20024;-69
2022/06/19 03:33:01;;;;;;;6.75;1.50;;;;;;;15.46;51.67;100947.25;5072429;28;20020;-69
2022/06/19 03:35:26;;;;;;;8.50;1.73;;;;;;;15.40;51.30;100930.91;5072825;28;20419;-69
2022/06/19 03:37:51;;;;;;;5.60;1.48;;;;;;;15.36;50.41;100910.94;5072347;28;20040;-69
2022/06/19 03:40:17;;;;;;;5.65;1.10;;;;;;;15.35;51.29;100909.25;5072064;28;20162;-69
2022/06/19 03:42:42;;;;;;;8.10;1.40;;;;;;;15.33;52.32;100918.94;5072419;28;20024;-69
2022/06/19 03:45:08;;;;;;;6.95;1.17;;;;;;;15.26;52.65;100894.72;5072780;28;20052;-69
2022/06/19 03:47:33;;;;;;;4.80;1.25;;;;;;;15.28;51.56;100850.00;5071630;28;20029;-69
2022/06/19 03:50:00;;;;;;;4.53;1.23;;;;;;;15.20;51.09;100869.59;5072570;28;20107;-69
2022/06/19 03:52:25;;;;;;;5.10;1.20;;;;;;;15.26;51.80;100894.72;5073282;28;20037;-69
2022/06/19 03:54:50;;;;;;;8.18;1.27;;;;;;;15.18;51.74;100973.81;5071604;28;20111;-69
2022/06/19 03:57:16;;;;;;;5.20;1.02;;;;;;;15.27;53.28;101026.88;5072639;28;20017;-69
2022/06/19 03:59:41;;;;;;;5.25;1.13;;;;;;;15.27;52.67;101008.50;5072144;28;20032;-69
2022/06/19 04:02:09;;;;;;;3.60;1.10;;;;;;;15.33;51.89;100953.09;5071948;28;20103;-69
2022/06/19 04:04:39;;;;;;;5.85;1.05;;;;;;;15.30;51.94;100916.44;5073044;28;20096;-69
2022/06/19 04:07:05;;;;;;;5.53;0.95;;;;;;;15.37;52.53;100955.53;5071943;28;20077;-69
2022/06/19 04:09:30;;;;;;;9.52;1.10;;;;;;;15.37;50.96;100938.94;5072547;28;20028;-69
2022/06/19 04:11:55;;;;;;;4.13;0.90;;;;;;;15.32;51.17;100904.97;5071863;28;20024;-69
2022/06/19 04:14:21;;;;;;;6.28;1.08;;;;;;;15.39;49.90;100884.53;5071749;28;20518;-69
2022/06/19 04:16:46;;;;;;;6.68;1.58;;;;;;;15.39;50.24;100851.25;5072131;28;20032;-69
2022/06/19 04:19:11;;;;;;;5.28;0.95;;;;;;;15.38;50.44;100825.91;5071923;28;20368;-69
2022/06/19 04:21:43;;;;;;;8.63;1.40;;;;;;;15.45;50.13;100826.47;5074043;28;20060;-69
2022/06/19 04:24:10;;;;;;;8.65;1.25;;;;;;;15.43;50.48;100799.41;5076170;28;20024;-69
2022/06/19 04:26:37;;;;;;;6.40;1.08;;;;;;;15.45;50.50;100787.09;5075399;28;20036;-69
2022/06/19 04:29:04;;;;;;;7.70;1.30;;;;;;;15.43;50.29;100760.88;5075324;28;20029;-69
2022/06/19 04:31:29;;;;;;;6.30;1.10;;;;;;;15.53;49.65;100763.09;5075963;28;20025;-69
2022/06/19 04:33:55;;;;;;;5.88;1.20;;;;;;;15.57;50.51;100772.56;5075467;28;20021;-69
2022/06/19 04:36:22;;;;;;;5.60;0.88;;;;;;;15.60;50.76;100762.75;5075230;28;20165;-69
2022/06/19 04:38:50;;;;;;;7.65;1.30;;;;;;;15.60;51.12;100762.75;5075378;28;20443;-69
2022/06/19 04:41:38;;;;;;;6.82;1.40;;;;;;;15.67;51.20;100772.09;5075481;28;20016;-69
2022/06/19 04:44:06;;;;;;;5.68;1.10;;;;;;;15.65;52.35;100776.53;5075075;28;20520;-69
2022/06/19 04:46:32;;;;;;;5.85;1.65;;;;;;;15.71;51.50;100771.94;5075312;28;20421;-69
2022/06/19 04:48:58;;;;;;;11.60;1.50;;;;;;;15.80;51.45;100761.03;5075509;28;20024;-69
2022/06/19 04:51:24;;;;;;;9.63;1.60;;;;;;;15.78;51.59;100739.19;5075082;28;20020;-69
2022/06/19 04:53:50;;;;;;;5.07;1.23;;;;;;;15.70;52.34;100709.81;5074701;28;20051;-69
2022/06/19 04:56:18;;;;;;;5.63;1.30;;;;;;;15.72;52.58;100714.03;5074971;28;20029;-69
2022/06/19 04:58:43;;;;;;;8.07;1.40;;;;;;;15.77;51.82;100711.22;5074978;28;20050;-69
2022/06/19 05:01:14;;;;;;;6.75;1.35;;;;;;;15.84;51.75;100704.75;5075149;28;20083;-69
2022/06/19 05:03:39;;;;;;;4.22;1.25;;;;;;;15.78;52.23;100708.50;5074545;28;20196;-69
2022/06/19 05:06:05;;;;;;;4.53;1.30;;;;;;;15.73;51.47;100722.78;5075758;28;20470;-69
2022/06/19 05:08:31;;;;;;;8.55;1.45;;;;;;;15.71;52.57;100733.38;5074968;28;20565;-70
2022/06/19 05:10:57;;;;;;;6.65;1.13;;;;;;;15.70;53.19;100765.84;5075633;28;20031;-70
2022/06/19 05:13:23;;;;;;;4.68;1.10;;;;;;;15.78;52.65;100797.03;5075203;28;20028;-69
2022/06/19 05:15:49;;;;;;;5.30;1.20;;;;;;;15.82;52.68;100804.69;5075161;28;20028;-69
2022/06/19 05:18:17;;;;;;;5.75;1.50;;;;;;;15.76;53.93;100786.59;5075248;28;20025;-69
2022/06/19 05:20:43;;;;;;;8.45;1.88;;;;;;;15.77;53.96;100769.03;5074771;28;20024;-69
2022/06/19 05:23:09;;;;;;;9.52;1.45;;;;;;;15.82;53.30;100778.41;5075528;28;20024;-69
2022/06/19 05:25:35;;;;;;;5.10;1.20;;;;;;;15.88;54.01;100793.88;5074694;28;20028;-69
2022/06/19 05:28:00;;;;;;;9.45;1.55;;;;;;;15.90;53.08;100805.19;5075017;28;20108;-69
2022/06/19 05:30:26;;;;;;;6.50;1.50;;;;;;;16.01;52.65;100833.63;5074699;28;20372;-69
2022/06/19 05:32:52;;;;;;;6.90;1.30;;;;;;;16.17;53.33;100844.28;5073318;28;20437;-69
2022/06/19 05:35:17;;;;;;;9.90;1.95;;;;;;;16.32;51.52;100848.00;5074719;28;20032;-70
2022/06/19 05:37:42;;;;;;;6.40;1.50;;;;;;;16.54;52.43;100856.53;5075344;28;20112;-69
2022/06/19 05:40:09;;;;;;;9.88;1.20;;;;;;;16.65;51.52;100884.16;5077434;28;20020;-69
2022/06/19 05:42:35;;;;;;;7.20;1.60;;;;;;;16.85;50.43;100898.06;5075832;28;20035;-69
2022/06/19 05:45:00;;;;;;;8.68;1.45;;;;;;;17.19;49.62;100916.63;5077108;28;20024;-69
2022/06/19 05:47:25;;;;;;;5.28;1.50;;;;;;;17.45;49.57;100905.63;5076261;28;20032;-69
2022/06/19 05:49:51;;;;;;;6.28;1.52;;;;;;;17.82;49.57;100885.31;5074447;28;20112;-69
2022/06/19 05:52:19;;;;;;;5.43;1.20;;;;;;;17.93;48.64;100872.38;5074894;28;20048;-69
2022/06/19 05:54:46;;;;;;;9.93;1.95;;;;;;;17.81;49.50;100906.47;5074309;28;20017;-69
2022/06/19 05:57:12;;;;;;;8.38;2.13;;;;;;;17.64;50.01;100928.41;5073955;28;20035;-69
2022/06/19 05:59:37;;;;;;;7.20;1.60;;;;;;;17.53;51.35;100936.88;5073676;28;20058;-69
2022/06/19 06:02:03;;;;;;;4.78;1.35;;;;;;;17.47;52.07;100935.41;5074542;28;20025;-69
2022/06/19 06:04:29;;;;;;;7.95;1.33;;;;;;;17.49;52.09;100935.31;5073850;28;20036;-69
2022/06/19 06:06:57;;;;;;;5.07;1.48;;;;;;;17.38;52.35;100949.03;5073324;28;20033;-69
2022/06/19 06:09:22;;;;;;;5.40;1.55;;;;;;;17.26;51.71;100978.63;5074282;28;20082;-69
2022/06/19 06:11:47;;;;;;;5.47;1.38;;;;;;;17.14;52.36;101003.78;5073603;28;20028;-69
2022/06/19 06:14:13;;;;;;;6.93;1.45;;;;;;;17.14;54.14;100995.91;5073557;28;20078;-69
2022/06/19 06:16:38;;;;;;;5.78;1.80;;;;;;;17.24;55.31;101007.69;5073503;28;20431;-69
2022/06/19 06:19:04;;;;;;;4.00;1.40;;;;;;;17.07;53.27;100978.69;5073529;28;20028;-69
2022/06/19 06:21:30;;;;;;;7.10;1.63;;;;;;;16.91;53.11;100991.72;5073124;28;20032;-69
2022/06/19 06:23:55;;;;;;;7.57;1.77;;;;;;;16.81;54.91;101077.34;5073488;28;20029;-69
2022/06/19 06:26:27;;;;;;;5.65;1.52;;;;;;;16.63;57.26;101100.03;5073551;28;20029;-69
2022/06/19 06:28:55;;;;;;;8.15;1.33;;;;;;;16.39;58.77;101094.94;5072887;28;20081;-69
2022/06/19 06:31:21;;;;;;;10.00;1.85;;;;;;;15.91;62.16;101129.44;5073666;28;20013;-69
2022/06/19 06:33:46;;;;;;;7.78;1.73;;;;;;;15.28;68.50;101173.06;5073021;28;20027;-70
2022/06/19 06:36:12;;;;;;;13.05;1.95;;;;;;;14.90;71.46;101223.44;5072794;28;20503;-69
2022/06/19 06:38:38;;;;;;;9.68;2.08;;;;;;;14.68;75.69;101228.59;5072787;28;20534;-70
2022/06/19 06:41:05;;;;;;;6.70;1.73;;;;;;;14.71;77.97;101228.50;5073561;28;20029;-70
2022/06/19 06:43:31;;;;;;;9.32;2.15;;;;;;;14.69;77.18;101238.16;5072870;28;20060;-70
2022/06/19 06:46:06;;;;;;;5.57;1.35;;;;;;;14.68;75.41;101223.34;5073313;28;20067;-70
2022/06/19 06:48:32;;;;;;;8.80;1.70;;;;;;;14.66;77.22;101226.94;5073765;28;20021;-70
2022/06/19 06:50:57;;;;;;;9.40;1.88;;;;;;;14.68;77.09;101228.59;5073078;28;20052;-70
2022/06/19 06:53:22;;;;;;;7.82;1.73;;;;;;;14.86;76.42;101215.72;5073144;28;20052;-69
2022/06/19 06:55:48;;;;;;;8.27;1.88;;;;;;;15.11;75.68;101207.84;5072491;28;20127;-70
2022/06/19 06:58:13;;;;;;;11.20;2.78;;;;;;;15.29;74.03;101180.03;5073716;28;20488;-69
2022/06/19 07:00:38;;;;;;;8.85;1.92;;;;;;;15.45;73.36;101178.53;5072718;28;20028;-69
2022/06/19 07:03:05;;;;;;;8.68;1.70;;;;;;;15.66;73.61;101174.19;5072447;28;20028;-69
2022/06/19 07:05:30;;;;;;;19.02;2.40;;;;;;;15.79;70.61;101171.97;5073276;28;20033;-70
2022/06/19 07:07:56;;;;;;;5.68;1.48;;;;;;;15.92;69.81;101178.47;5072583;28;20016;-69
2022/06/19 07:10:22;;;;;;;6.32;1.35;;;;;;;15.97;71.90;101183.56;5072652;28;20026;-70
2022/06/19 07:12:48;;;;;;;7.93;1.55;;;;;;;15.94;71.63;101204.72;5072869;28;20027;-70
2022/06/19 07:15:14;;;;;;;6.18;1.30;;;;;;;15.90;70.25;101223.22;5073245;28;20032;-69
2022/06/19 07:17:39;;;;;;;9.18;2.20;;;;;;;15.74;70.64;101230.00;5072608;28;20073;-70
2022/06/19 07:20:06;;;;;;;5.57;1.40;;;;;;;15.22;72.66;101230.16;5073105;28;20028;-70
2022/06/19 07:22:31;;;;;;;12.75;1.80;;;;;;;14.83;76.06;101221.09;5073141;28;20059;-69
2022/06/19 07:24:57;;;;;;;8.18;1.80;;;;;;;14.56;75.75;101187.03;5072245;28;20020;-70
2022/06/19 07:27:23;;;;;;;5.13;1.83;;;;;;;14.27;76.75;101154.75;5073448;28;20033;-69
2022/06/19 07:29:48;;;;;;;9.18;1.77;;;;;;;14.08;82.23;101140.53;5072337;28;20029;-70
2022/06/19 07:32:14;;;;;;;11.98;2.13;;;;;;;13.87;86.50;101112.41;5072334;28;20085;-71
2022/06/19 07:34:41;;;;;;;10.02;2.35;;;;;;;13.62;87.71;101110.56;5072745;28;20369;-71
2022/06/19 07:37:07;;;;;;;9.38;1.88;;;;;;;13.44;89.75;101083.22;5072674;28;20417;-71
2022/06/19 07:39:34;;;;;;;12.43;2.92;;;;;;;13.34;90.53;101076.53;5072318;28;20035;-71
2022/06/19 07:42:00;;;;;;;8.25;2.08;;;;;;;13.30;93.66;101081.00;5072893;28;20115;-71
2022/06/19 07:44:25;;;;;;;11.10;2.13;;;;;;;13.26;93.28;101029.66;5072706;28;20040;-70
2022/06/19 07:52:18;;;;;;;;;;;;;;;13.28;90.26;101137.81;5072774;28;20056;-71
2022/06/19 07:54:44;;;;;;;9.55;2.20;;;;;;;13.38;95.81;101161.97;5072281;28;19912;-70
2022/06/19 07:57:09;;;;;;;12.50;2.05;;;;;;;13.47;96.20;101200.09;5075698;28;20040;-70
2022/06/19 07:59:35;;;;;;;11.75;2.42;;;;;;;13.51;96.35;101210.47;5075720;28;20505;-71
2022/06/19 08:02:00;;;;;;;16.98;2.30;;;;;;;13.46;97.11;101180.91;5076545;28;20154;-71
2022/06/19 08:04:25;;;;;;;10.55;2.17;;;;;;;13.61;96.78;101142.94;5076343;28;20031;-70
2022/06/19 08:06:51;;;;;;;11.27;2.60;;;;;;;13.59;96.78;101129.88;5075601;28;20383;-70
2022/06/19 08:09:16;;;;;;;7.82;2.30;;;;;;;13.53;97.62;101140.53;5076432;28;20024;-70
2022/06/19 08:11:42;;;;;;;13.95;2.30;;;;;;;13.55;98.01;101107.28;5075833;28;20028;-70
2022/06/19 08:14:07;;;;;;;13.23;2.83;;;;;;;13.54;98.84;101125.69;5075561;28;20035;-70
2022/06/19 08:16:33;;;;;;;12.23;2.83;;;;;;;13.47;98.15;101172.16;5075975;28;20078;-71
2022/06/19 08:18:58;;;;;;;7.32;2.95;;;;;;;13.62;99.32;101154.25;5076053;28;20085;-71
2022/06/19 08:21:23;;;;;;;11.95;2.97;;;;;;;13.90;99.52;101091.34;5075434;28;20078;-71
2022/06/19 08:23:49;;;;;;;11.15;2.80;;;;;;;14.05;98.66;101096.06;5075599;28;20032;-71
2022/06/19 08:26:15;;;;;;;10.25;3.00;;;;;;;14.25;99.40;101093.59;5075872;28;20368;-70
2022/06/19 08:31:11;;;;;;;13.13;2.70;;;;;;;14.48;99.46;101078.84;5075973;28;20484;-70
2022/06/19 08:33:37;;;;;;;14.05;2.85;;;;;;;14.61;99.71;101077.50;5075745;28;20027;-70
2022/06/19 08:36:06;;;;;;;9.15;3.35;;;;;;;14.57;96.79;101044.44;5075325;28;20465;-71
2022/06/19 08:38:40;;;;;;;10.23;2.70;;;;;;;14.47;97.61;101050.91;5075633;28;20028;-70
2022/06/19 08:41:08;;;;;;;;;;;;;;;14.29;94.74;101042.78;5076101;28;20025;-71
2022/06/19 08:43:57;;;;;;;10.68;3.20;;;;;;;14.07;97.46;101028.72;5075616;28;19920;-70
2022/06/19 08:46:33;;;;;;;14.07;2.97;;;;;;;13.84;99.19;100981.50;5075350;28;20047;-70
2022/06/19 08:49:15;;;;;;;9.40;2.90;;;;;;;14.01;100.00;100968.63;5075064;28;20028;-70
2022/06/19 08:52:11;;;;;;;11.85;3.05;;;;;;;14.05;99.16;100996.44;5075261;28;20029;-71
2022/06/19 08:54:58;;;;;;;11.20;3.20;;;;;;;14.14;99.52;101035.47;5075302;28;20045;-70
2022/06/19 08:58:09;;;;;;;14.35;3.28;;;;;;;14.26;99.96;101018.44;5074814;28;20032;-70
2022/06/19 09:01:30;;;;;;;12.68;3.15;;;;;;;14.29;100.00;101032.28;5057912;28;20142;-72
2022/06/19 09:07:50;;;;;;;13.05;3.25;;;;;;;14.61;99.09;101055.66;5074099;28;20134;-70
2022/06/19 09:10:33;;;;;;;13.98;3.40;;;;;;;14.62;98.28;101092.34;5074750;28;20099;-70
2022/06/19 09:13:21;;;;;;;14.55;3.60;;;;;;;14.67;97.11;101123.66;5075105;28;20451;-70
2022/06/19 09:15:49;;;;;;;10.35;2.80;;;;;;;14.79;97.04;101151.25;5074553;28;20511;-70
2022/06/19 09:18:23;;;;;;;14.02;3.30;;;;;;;14.88;92.83;101171.91;5074584;28;20032;-70
2022/06/19 09:21:11;;;;;;;11.02;3.95;;;;;;;15.28;96.16;101170.44;5074322;28;20029;-70
2022/06/19 09:24:16;;;;;;;10.75;2.90;;;;;;;15.67;95.69;101173.34;5074231;28;20028;-70
2022/06/19 09:26:54;;;;;;;13.40;2.63;;;;;;;15.91;90.69;101147.84;5074660;28;20051;-70
2022/06/19 09:29:37;;;;;;;12.77;3.10;;;;;;;16.00;92.53;101154.50;5074959;28;20043;-70
2022/06/19 09:32:05;;;;;;;7.72;2.58;;;;;;;16.07;91.27;101145.44;5074400;28;20031;-69
2022/06/19 09:34:40;;;;;;;9.57;3.10;;;;;;;16.11;90.79;101132.06;5074556;28;20029;-70
2022/06/19 09:37:19;;;;;;;11.30;3.03;;;;;;;16.01;86.29;101116.75;5074664;28;20032;-70
2022/06/19 09:40:00;;;;;;;10.73;2.88;;;;;;;16.04;86.92;101101.72;5073842;28;20113;-70
2022/06/19 09:42:34;;;;;;;10.48;2.72;;;;;;;16.50;86.54;101089.19;5074817;28;20028;-70
2022/06/19 09:45:21;;;;;;;11.48;3.20;;;;;;;17.01;86.09;101082.53;5073982;28;20028;-70
2022/06/19 09:48:02;;;;;;;13.88;3.00;;;;;;;17.43;81.59;101048.94;5074071;28;20461;-70
2022/06/19 09:50:36;;;;;;;10.50;2.70;;;;;;;17.78;81.08;101042.81;5074627;28;20051;-70
2022/06/19 09:53:11;;;;;;;8.23;2.70;;;;;;;17.98;78.62;101055.00;5073879;28;20075;-70
2022/06/19 09:55:55;;;;;;;7.95;2.47;;;;;;;18.11;76.54;101064.91;5074016;28;20040;-70
2022/06/19 09:58:29;;;;;;;9.57;3.00;;;;;;;18.08;76.88;101051.88;5074384;28;20112;-70
2022/06/19 10:00:57;;;;;;;8.55;2.83;;;;;;;18.02;74.42;101043.38;5074093;28;20032;-70
2022/06/19 10:03:25;;;;;;;10.30;2.90;;;;;;;18.00;74.45;101024.09;5073961;28;20031;-70
2022/06/19 10:05:56;;;;;;;11.68;3.55;;;;;;;18.01;73.94;101017.03;5073300;28;20044;-70
2022/06/19 10:08:26;;;;;;;10.75;2.75;;;;;;;18.16;72.50;101020.69;5074119;28;20074;-70
2022/06/19 10:10:58;;;;;;;10.45;2.72;;;;;;;18.61;72.15;101005.97;5073450;28;20071;-70
2022/06/19 10:13:48;;;;;;;10.80;3.50;;;;;;;19.05;70.48;100990.31;5073853;28;20028;-70
2022/06/19 10:16:28;;;;;;;8.82;2.50;;;;;;;19.11;68.96;100992.63;5073819;28;20025;-70
2022/06/19 10:18:56;;;;;;;9.07;3.28;;;;;;;18.97;70.00;100997.84;5073034;28;20024;-70
2022/06/19 10:25:12;;;;;;;8.55;2.40;;;;;;;19.42;66.43;100983.81;5073882;28;20059;-70
2022/06/19 10:27:56;;;;;;;9.43;2.70;;;;;;;19.23;63.38;100985.81;5073090;28;20040;-70
2022/06/19 10:30:40;;;;;;;6.50;2.08;;;;;;;19.03;64.87;101005.44;5073608;28;20032;-70
2022/06/19 10:33:44;;;;;;;6.60;2.08;;;;;;;18.88;65.73;101030.91;5073720;28;20021;-70
2022/06/19 10:36:32;;;;;;;7.93;2.38;;;;;;;18.85;62.45;101032.84;5055242;28;20476;-70
2022/06/19 10:39:02;;;;;;;11.18;2.70;;;;;;;18.81;65.17;101020.78;5073465;28;20029;-69
2022/06/19 10:42:10;;;;;;;7.20;2.20;;;;;;;19.13;65.15;101000.47;5072907;28;20388;-69
2022/06/19 10:45:06;;;;;;;6.20;2.25;;;;;;;19.85;65.51;100996.31;5069752;28;20117;-70
2022/06/19 10:47:50;;;;;;;10.13;2.25;;;;;;;20.30;64.36;101003.22;5073379;28;20029;-70
2022/06/19 10:50:37;;;;;;;7.32;2.15;;;;;;;20.72;60.72;100993.59;5073344;28;20017;-69
2022/06/19 10:53:25;;;;;;;6.65;1.85;;;;;;;21.14;59.48;101020.09;5072982;28;20059;-70
2022/06/19 10:56:06;;;;;;;6.93;1.65;;;;;;;21.09;59.68;101046.91;5072157;28;20496;-70
2022/06/19 10:58:32;;;;;;;7.88;1.98;;;;;;;21.20;55.83;101055.00;5073165;28;20468;-70
2022/06/19 11:01:04;;;;;;;7.68;1.73;;;;;;;21.54;53.77;101059.94;5073220;28;20028;-70
2022/06/19 11:06:37;;;;;;;5.00;1.70;;;;;;;22.10;54.12;101057.94;5073151;28;20388;-70
2022/06/19 11:09:07;;;;;;;4.15;1.48;;;;;;;22.01;48.17;101042.63;5072342;28;20048;-70
2022/06/19 11:11:35;;;;;;;4.43;1.42;;;;;;;21.97;51.35;101057.91;5072941;28;20031;-70
2022/06/19 11:14:07;;;;;;;5.03;1.60;;;;;;;21.94;50.23;101056.34;5072672;28;20489;-70
2022/06/19 11:16:34;;;;;;;6.07;2.13;;;;;;;22.10;52.78;101065.88;5072040;28;20376;-69
2022/06/19 11:19:00;;;;;;;3.38;1.42;;;;;;;22.08;47.19;101081.09;5073161;28;20028;-70
2022/06/19 11:21:31;;;;;;;6.60;1.65;;;;;;;21.94;47.97;101104.13;5072473;28;20040;-70
2022/06/19 11:23:59;;;;;;;7.25;1.60;;;;;;;21.71;50.79;101105.66;5072195;28;20028;-70
2022/06/19 11:26:35;;;;;;;5.18;1.67;;;;;;;21.79;52.41;101086.56;5072669;28;20036;-70
2022/06/19 11:29:06;;;;;;;4.28;1.55;;;;;;;22.14;50.56;101088.66;5073052;28;20052;-69
2022/06/19 11:31:38;;;;;;;6.82;2.10;;;;;;;22.00;52.47;101094.03;5071473;28;20082;-69
2022/06/19 11:34:43;;;;;;;5.43;2.00;;;;;;;22.18;51.39;101104.28;5072493;28;20100;-70
2022/06/19 11:37:29;;;;;;;4.30;1.60;;;;;;;22.30;51.68;101101.72;5071978;28;20421;-70
2022/06/19 11:40:12;;;;;;;4.65;1.67;;;;;;;22.64;52.33;101097.59;5072474;28;20036;-70
2022/06/19 11:42:37;;;;;;;;;;;;;;;23.09;51.13;101090.03;5073016;28;20023;-70
2022/06/19 11:45:21;;;;;;;7.75;2.88;;;;;;;23.12;50.03;101082.66;5072313;28;19913;-70
2022/06/19 11:47:55;;;;;;;5.90;2.10;;;;;;;23.38;49.76;101095.88;5072099;28;20016;-70
2022/06/19 11:50:33;;;;;;;7.53;1.90;;;;;;;23.53;48.45;101108.03;5072560;28;20468;-70
2022/06/19 11:53:02;;;;;;;4.43;1.58;;;;;;;23.70;45.26;101114.78;5071810;28;20127;-70